sensor_id;sensor_type;location;lat;lon;timestamp;P1;durP1;ratioP1;P2;durP2;ratioP2
53688;SDS011;39583;54.682;30.662;2023-05-25T06:34:08;21.08;;;19.73;;
53688;SDS011;39583;54.682;30.662;2023-05-25T06:36:35;9.48;;;8.40;;
53688;SDS011;39583;54.682;30.662;2023-05-25T06:39:01;9.38;;;6.85;;
53688;SDS011;39583;54.682;30.662;2023-05-25T06:41:27;10.70;;;9.80;;
53688;SDS011;39583;54.682;30.662;2023-05-25T06:43:55;7.57;;;6.45;;
53688;SDS011;39583;54.682;30.662;2023-05-25T06:46:28;11.02;;;10.18;;
53688;SDS011;39583;54.682;30.662;2023-05-25T06:48:57;11.35;;;10.57;;
53688;SDS011;39583;54.682;30.662;2023-05-25T06:51:24;12.10;;;10.68;;
53688;SDS011;39583;54.682;30.662;2023-05-25T06:53:52;11.18;;;10.02;;
53688;SDS011;39583;54.682;30.662;2023-05-25T06:56:20;13.38;;;12.35;;
53688;SDS011;39583;54.682;30.662;2023-05-25T06:58:50;11.20;;;10.10;;
53688;SDS011;39583;54.682;30.662;2023-05-25T07:01:22;13.13;;;12.02;;
53688;SDS011;39583;54.682;30.662;2023-05-25T07:03:51;10.13;;;9.45;;
53688;SDS011;39583;54.682;30.662;2023-05-25T07:06:20;10.73;;;9.35;;
53688;SDS011;39583;54.682;30.662;2023-05-25T07:08:51;10.90;;;10.10;;
53688;SDS011;39583;54.682;30.662;2023-05-25T07:11:17;8.63;;;7.40;;
53688;SDS011;39583;54.682;30.662;2023-05-25T11:13:48;18.00;;;16.98;;
53688;SDS011;39583;54.682;30.662;2023-05-25T11:18:56;14.98;;;13.70;;
53688;SDS011;39583;54.682;30.662;2023-05-25T11:23:58;16.83;;;15.27;;
53688;SDS011;39583;54.682;30.662;2023-05-25T11:26:28;13.95;;;13.05;;
53688;SDS011;39583;54.682;30.662;2023-05-25T11:28:55;14.50;;;13.40;;
53688;SDS011;39583;54.682;30.662;2023-05-25T11:31:27;14.48;;;13.45;;
53688;SDS011;39583;54.682;30.662;2023-05-25T11:34:00;14.55;;;13.50;;
53688;SDS011;39583;54.682;30.662;2023-05-25T11:36:31;14.98;;;14.07;;
53688;SDS011;39583;54.682;30.662;2023-05-25T11:39:00;15.38;;;14.00;;
53688;SDS011;39583;54.682;30.662;2023-05-25T11:41:31;14.90;;;13.80;;
53688;SDS011;39583;54.682;30.662;2023-05-25T11:44:06;15.07;;;14.07;;
53688;SDS011;39583;54.682;30.662;2023-05-25T11:46:32;14.63;;;13.02;;
53688;SDS011;39583;54.682;30.662;2023-05-25T11:48:59;15.50;;;14.45;;
53688;SDS011;39583;54.682;30.662;2023-05-25T11:51:26;15.88;;;14.52;;
53688;SDS011;39583;54.682;30.662;2023-05-25T11:53:53;16.33;;;14.77;;
53688;SDS011;39583;54.682;30.662;2023-05-25T11:56:19;16.98;;;15.77;;
53688;SDS011;39583;54.682;30.662;2023-05-25T11:58:47;15.77;;;14.18;;
53688;SDS011;39583;54.682;30.662;2023-05-25T12:03:41;14.70;;;13.70;;
53688;SDS011;39583;54.682;30.662;2023-05-25T12:06:08;15.25;;;14.32;;
53688;SDS011;39583;54.682;30.662;2023-05-25T12:08:34;13.52;;;12.70;;
53688;SDS011;39583;54.682;30.662;2023-05-25T12:11:01;12.18;;;11.35;;
53688;SDS011;39583;54.682;30.662;2023-05-25T12:13:28;13.70;;;12.60;;
53688;SDS011;39583;54.682;30.662;2023-05-25T12:15:56;15.25;;;14.02;;
53688;SDS011;39583;54.682;30.662;2023-05-25T12:18:25;14.13;;;13.00;;
53688;SDS011;39583;54.682;30.662;2023-05-25T12:20:53;15.35;;;13.93;;
53688;SDS011;39583;54.682;30.662;2023-05-25T12:23:21;14.32;;;13.23;;
53688;SDS011;39583;54.682;30.662;2023-05-25T12:25:47;13.63;;;12.43;;
53688;SDS011;39583;54.682;30.662;2023-05-25T12:28:14;15.32;;;14.40;;
53688;SDS011;39583;54.682;30.662;2023-05-25T12:30:40;16.08;;;14.77;;
53688;SDS011;39583;54.682;30.662;2023-05-25T12:33:06;14.05;;;12.93;;
53688;SDS011;39583;54.682;30.662;2023-05-25T12:35:45;14.95;;;13.95;;
53688;SDS011;39583;54.682;30.662;2023-05-25T12:38:12;16.42;;;12.70;;
53688;SDS011;39583;54.682;30.662;2023-05-25T12:40:40;11.40;;;10.40;;
53688;SDS011;39583;54.682;30.662;2023-05-25T12:43:06;14.32;;;13.43;;
53688;SDS011;39583;54.682;30.662;2023-05-25T12:45:32;13.55;;;12.65;;
53688;SDS011;39583;54.682;30.662;2023-05-25T12:47:58;14.25;;;13.25;;
53688;SDS011;39583;54.682;30.662;2023-05-25T12:50:24;15.70;;;14.70;;
53688;SDS011;39583;54.682;30.662;2023-05-25T12:52:50;15.65;;;14.68;;
53688;SDS011;39583;54.682;30.662;2023-05-25T12:57:50;14.02;;;12.85;;
53688;SDS011;39583;54.682;30.662;2023-05-25T13:00:20;13.65;;;12.73;;
53688;SDS011;39583;54.682;30.662;2023-05-25T13:02:50;13.85;;;12.88;;
53688;SDS011;39583;54.682;30.662;2023-05-25T13:05:21;13.57;;;12.35;;
53688;SDS011;39583;54.682;30.662;2023-05-25T13:07:49;14.90;;;13.77;;
53688;SDS011;39583;54.682;30.662;2023-05-25T13:10:15;13.57;;;12.65;;
53688;SDS011;39583;54.682;30.662;2023-05-25T13:12:45;12.90;;;12.10;;
53688;SDS011;39583;54.682;30.662;2023-05-25T13:15:13;14.18;;;13.07;;
53688;SDS011;39583;54.682;30.662;2023-05-25T13:17:40;16.73;;;15.75;;
53688;SDS011;39583;54.682;30.662;2023-05-25T13:20:12;14.88;;;14.05;;
53688;SDS011;39583;54.682;30.662;2023-05-25T13:22:43;8.48;;;7.78;;
53688;SDS011;39583;54.682;30.662;2023-05-25T13:25:11;10.52;;;9.75;;
53688;SDS011;39583;54.682;30.662;2023-05-25T13:27:43;10.23;;;9.43;;
53688;SDS011;39583;54.682;30.662;2023-05-25T13:30:18;12.63;;;11.82;;
53688;SDS011;39583;54.682;30.662;2023-05-25T13:32:47;14.48;;;13.48;;
53688;SDS011;39583;54.682;30.662;2023-05-25T13:35:19;16.63;;;15.57;;
53688;SDS011;39583;54.682;30.662;2023-05-25T13:38:22;15.27;;;14.18;;
53688;SDS011;39583;54.682;30.662;2023-05-25T13:40:49;16.05;;;15.02;;
53688;SDS011;39583;54.682;30.662;2023-05-25T13:43:15;17.05;;;16.02;;
53688;SDS011;39583;54.682;30.662;2023-05-25T13:45:41;17.02;;;16.00;;
53688;SDS011;39583;54.682;30.662;2023-05-25T13:48:07;16.67;;;15.57;;
53688;SDS011;39583;54.682;30.662;2023-05-25T13:50:33;13.00;;;12.27;;
53688;SDS011;39583;54.682;30.662;2023-05-25T13:52:59;15.40;;;13.95;;
53688;SDS011;39583;54.682;30.662;2023-05-25T13:55:25;15.63;;;14.52;;
53688;SDS011;39583;54.682;30.662;2023-05-25T13:57:50;13.60;;;12.75;;
53688;SDS011;39583;54.682;30.662;2023-05-25T14:00:17;18.15;;;17.02;;
53688;SDS011;39583;54.682;30.662;2023-05-25T14:02:43;15.50;;;14.45;;
53688;SDS011;39583;54.682;30.662;2023-05-25T14:05:09;17.15;;;16.25;;
53688;SDS011;39583;54.682;30.662;2023-05-25T14:07:35;17.85;;;16.83;;
53688;SDS011;39583;54.682;30.662;2023-05-25T14:10:02;17.17;;;16.08;;
53688;SDS011;39583;54.682;30.662;2023-05-25T14:12:28;16.85;;;15.85;;
53688;SDS011;39583;54.682;30.662;2023-05-25T14:14:54;12.38;;;10.75;;
53688;SDS011;39583;54.682;30.662;2023-05-25T14:17:20;18.15;;;16.70;;
53688;SDS011;39583;54.682;30.662;2023-05-25T14:19:46;13.32;;;12.45;;
53688;SDS011;39583;54.682;30.662;2023-05-25T14:22:12;13.77;;;12.88;;
53688;SDS011;39583;54.682;30.662;2023-05-25T14:24:38;15.25;;;14.20;;
53688;SDS011;39583;54.682;30.662;2023-05-25T14:27:04;15.43;;;14.25;;
53688;SDS011;39583;54.682;30.662;2023-05-25T14:29:31;14.18;;;13.27;;
53688;SDS011;39583;54.682;30.662;2023-05-25T14:31:57;15.02;;;14.07;;
53688;SDS011;39583;54.682;30.662;2023-05-25T14:34:23;7.75;;;7.15;;
53688;SDS011;39583;54.682;30.662;2023-05-25T14:36:49;16.35;;;15.27;;
53688;SDS011;39583;54.682;30.662;2023-05-25T14:39:15;13.60;;;12.73;;
53688;SDS011;39583;54.682;30.662;2023-05-25T14:41:40;15.02;;;13.70;;
53688;SDS011;39583;54.682;30.662;2023-05-25T14:44:06;14.70;;;13.35;;
53688;SDS011;39583;54.682;30.662;2023-05-25T14:46:33;11.32;;;10.38;;
53688;SDS011;39583;54.682;30.662;2023-05-25T14:48:59;10.35;;;9.63;;
53688;SDS011;39583;54.682;30.662;2023-05-25T14:51:26;11.82;;;10.90;;
53688;SDS011;39583;54.682;30.662;2023-05-25T14:53:52;9.57;;;8.98;;
53688;SDS011;39583;54.682;30.662;2023-05-25T14:56:18;11.15;;;10.43;;
53688;SDS011;39583;54.682;30.662;2023-05-25T14:58:46;13.30;;;12.23;;
53688;SDS011;39583;54.682;30.662;2023-05-25T15:01:12;10.48;;;9.68;;
53688;SDS011;39583;54.682;30.662;2023-05-25T15:03:38;11.75;;;10.90;;
53688;SDS011;39583;54.682;30.662;2023-05-25T15:06:04;13.52;;;12.43;;
53688;SDS011;39583;54.682;30.662;2023-05-25T15:08:30;13.43;;;12.43;;
53688;SDS011;39583;54.682;30.662;2023-05-25T15:10:56;15.35;;;14.23;;
53688;SDS011;39583;54.682;30.662;2023-05-25T15:13:22;12.65;;;11.85;;
53688;SDS011;39583;54.682;30.662;2023-05-25T15:15:48;9.63;;;8.82;;
53688;SDS011;39583;54.682;30.662;2023-05-25T15:18:19;17.38;;;16.38;;
53688;SDS011;39583;54.682;30.662;2023-05-25T15:20:45;17.08;;;15.93;;
53688;SDS011;39583;54.682;30.662;2023-05-25T15:23:12;12.70;;;11.80;;
53688;SDS011;39583;54.682;30.662;2023-05-25T15:25:38;17.23;;;16.15;;
53688;SDS011;39583;54.682;30.662;2023-05-25T15:28:04;23.33;;;16.38;;
53688;SDS011;39583;54.682;30.662;2023-05-25T15:30:31;17.65;;;16.58;;
53688;SDS011;39583;54.682;30.662;2023-05-25T15:32:59;16.40;;;15.20;;
53688;SDS011;39583;54.682;30.662;2023-05-25T15:35:25;16.83;;;15.68;;
53688;SDS011;39583;54.682;30.662;2023-05-25T15:37:57;17.77;;;16.50;;
53688;SDS011;39583;54.682;30.662;2023-05-25T15:40:23;16.73;;;15.43;;
53688;SDS011;39583;54.682;30.662;2023-05-25T15:42:49;16.92;;;15.93;;
53688;SDS011;39583;54.682;30.662;2023-05-25T15:45:15;13.80;;;12.57;;
53688;SDS011;39583;54.682;30.662;2023-05-25T15:47:41;15.73;;;14.65;;
53688;SDS011;39583;54.682;30.662;2023-05-25T15:50:07;17.63;;;16.52;;
53688;SDS011;39583;54.682;30.662;2023-05-25T15:52:33;18.20;;;17.10;;
53688;SDS011;39583;54.682;30.662;2023-05-25T15:54:59;16.52;;;15.38;;
53688;SDS011;39583;54.682;30.662;2023-05-25T15:57:26;16.85;;;15.85;;
53688;SDS011;39583;54.682;30.662;2023-05-25T15:59:52;16.58;;;15.25;;
53688;SDS011;39583;54.682;30.662;2023-05-25T16:02:18;20.00;;;18.70;;
53688;SDS011;39583;54.682;30.662;2023-05-25T16:04:45;17.92;;;16.40;;
53688;SDS011;39583;54.682;30.662;2023-05-25T16:07:11;16.45;;;15.50;;
53688;SDS011;39583;54.682;30.662;2023-05-25T16:09:38;16.92;;;15.68;;
53688;SDS011;39583;54.682;30.662;2023-05-25T16:12:04;16.30;;;15.25;;
53688;SDS011;39583;54.682;30.662;2023-05-25T16:14:31;16.90;;;15.80;;
53688;SDS011;39583;54.682;30.662;2023-05-25T16:16:57;14.63;;;13.77;;
53688;SDS011;39583;54.682;30.662;2023-05-25T16:19:23;14.48;;;13.50;;
53688;SDS011;39583;54.682;30.662;2023-05-25T16:21:49;12.95;;;12.15;;
53688;SDS011;39583;54.682;30.662;2023-05-25T16:24:15;14.20;;;13.15;;
53688;SDS011;39583;54.682;30.662;2023-05-25T16:26:40;14.52;;;13.52;;
53688;SDS011;39583;54.682;30.662;2023-05-25T16:29:06;13.85;;;12.85;;
53688;SDS011;39583;54.682;30.662;2023-05-25T16:31:32;15.57;;;14.48;;
53688;SDS011;39583;54.682;30.662;2023-05-25T16:33:59;19.60;;;18.33;;
53688;SDS011;39583;54.682;30.662;2023-05-25T16:36:27;19.15;;;17.77;;
53688;SDS011;39583;54.682;30.662;2023-05-25T16:38:53;15.43;;;14.43;;
53688;SDS011;39583;54.682;30.662;2023-05-25T16:41:19;16.92;;;15.98;;
53688;SDS011;39583;54.682;30.662;2023-05-25T16:43:45;16.70;;;15.60;;
53688;SDS011;39583;54.682;30.662;2023-05-25T16:46:11;18.98;;;17.63;;
53688;SDS011;39583;54.682;30.662;2023-05-25T16:48:37;18.42;;;16.98;;
53688;SDS011;39583;54.682;30.662;2023-05-25T16:51:03;21.65;;;20.13;;
53688;SDS011;39583;54.682;30.662;2023-05-25T16:53:28;21.65;;;19.60;;
53688;SDS011;39583;54.682;30.662;2023-05-25T16:55:54;19.48;;;17.67;;
53688;SDS011;39583;54.682;30.662;2023-05-25T16:58:20;19.30;;;17.65;;
53688;SDS011;39583;54.682;30.662;2023-05-25T17:00:48;17.13;;;15.55;;
53688;SDS011;39583;54.682;30.662;2023-05-25T17:03:15;17.77;;;16.17;;
53688;SDS011;39583;54.682;30.662;2023-05-25T17:05:41;16.15;;;15.05;;
53688;SDS011;39583;54.682;30.662;2023-05-25T17:08:06;18.00;;;16.80;;
53688;SDS011;39583;54.682;30.662;2023-05-25T17:10:33;20.08;;;18.30;;
53688;SDS011;39583;54.682;30.662;2023-05-25T17:12:59;18.95;;;17.75;;
53688;SDS011;39583;54.682;30.662;2023-05-25T17:15:26;18.42;;;17.33;;
53688;SDS011;39583;54.682;30.662;2023-05-25T17:17:52;19.42;;;17.83;;
53688;SDS011;39583;54.682;30.662;2023-05-25T17:20:18;18.50;;;17.40;;
53688;SDS011;39583;54.682;30.662;2023-05-25T17:22:43;21.85;;;20.25;;
53688;SDS011;39583;54.682;30.662;2023-05-25T17:25:10;16.27;;;15.38;;
53688;SDS011;39583;54.682;30.662;2023-05-25T17:27:36;16.95;;;15.80;;
53688;SDS011;39583;54.682;30.662;2023-05-25T17:30:02;14.18;;;13.13;;
53688;SDS011;39583;54.682;30.662;2023-05-25T17:32:29;14.10;;;13.10;;
53688;SDS011;39583;54.682;30.662;2023-05-25T17:34:56;13.32;;;12.07;;
53688;SDS011;39583;54.682;30.662;2023-05-25T17:37:22;13.23;;;12.02;;
53688;SDS011;39583;54.682;30.662;2023-05-25T17:39:48;11.55;;;10.75;;
53688;SDS011;39583;54.682;30.662;2023-05-25T17:42:14;11.00;;;10.05;;
53688;SDS011;39583;54.682;30.662;2023-05-25T17:44:41;10.52;;;9.63;;
53688;SDS011;39583;54.682;30.662;2023-05-25T17:47:07;10.05;;;9.15;;
53688;SDS011;39583;54.682;30.662;2023-05-25T17:49:33;8.77;;;8.18;;
53688;SDS011;39583;54.682;30.662;2023-05-25T17:51:59;10.20;;;9.40;;
53688;SDS011;39583;54.682;30.662;2023-05-25T17:54:25;9.18;;;8.25;;
53688;SDS011;39583;54.682;30.662;2023-05-25T17:56:52;8.45;;;7.82;;
53688;SDS011;39583;54.682;30.662;2023-05-25T17:59:18;8.55;;;7.78;;
53688;SDS011;39583;54.682;30.662;2023-05-25T18:01:44;7.97;;;6.75;;
53688;SDS011;39583;54.682;30.662;2023-05-25T18:04:10;8.18;;;6.57;;
53688;SDS011;39583;54.682;30.662;2023-05-25T18:06:36;6.68;;;5.85;;
53688;SDS011;39583;54.682;30.662;2023-05-25T18:09:02;6.90;;;6.40;;
53688;SDS011;39583;54.682;30.662;2023-05-25T18:11:28;6.20;;;5.60;;
53688;SDS011;39583;54.682;30.662;2023-05-25T18:14:00;8.20;;;6.63;;
53688;SDS011;39583;54.682;30.662;2023-05-25T18:16:29;8.07;;;6.05;;
53688;SDS011;39583;54.682;30.662;2023-05-25T18:18:56;7.70;;;5.65;;
53688;SDS011;39583;54.682;30.662;2023-05-25T18:21:22;6.82;;;6.28;;
53688;SDS011;39583;54.682;30.662;2023-05-25T18:23:48;6.45;;;5.85;;
53688;SDS011;39583;54.682;30.662;2023-05-25T18:26:14;6.22;;;5.53;;
53688;SDS011;39583;54.682;30.662;2023-05-25T18:28:40;8.13;;;6.68;;
53688;SDS011;39583;54.682;30.662;2023-05-25T18:31:06;6.95;;;6.22;;
53688;SDS011;39583;54.682;30.662;2023-05-25T18:33:33;9.57;;;6.72;;
53688;SDS011;39583;54.682;30.662;2023-05-25T18:35:59;11.10;;;7.10;;
53688;SDS011;39583;54.682;30.662;2023-05-25T18:38:25;7.05;;;6.43;;
53688;SDS011;39583;54.682;30.662;2023-05-25T18:40:51;6.95;;;6.28;;
53688;SDS011;39583;54.682;30.662;2023-05-25T18:43:17;9.07;;;6.15;;
53688;SDS011;39583;54.682;30.662;2023-05-25T18:45:44;7.50;;;6.80;;
53688;SDS011;39583;54.682;30.662;2023-05-25T18:48:11;10.25;;;6.28;;
53688;SDS011;39583;54.682;30.662;2023-05-25T18:50:37;8.30;;;7.53;;
53688;SDS011;39583;54.682;30.662;2023-05-25T18:53:04;8.02;;;7.00;;
53688;SDS011;39583;54.682;30.662;2023-05-25T18:55:32;7.78;;;7.10;;
53688;SDS011;39583;54.682;30.662;2023-05-25T18:57:58;9.90;;;6.75;;
53688;SDS011;39583;54.682;30.662;2023-05-25T19:00:25;8.02;;;7.40;;
53688;SDS011;39583;54.682;30.662;2023-05-25T19:02:51;7.28;;;6.47;;
